Pagrindinis puslapis
METAR-TAF:

METAR-TAF

Oro uostai :

Lakselv, Norvegija

platuma: 70-04N, ilguma: 024-59E, Aukštis: 0 m

Dabartinis oras

Ataskaita buvo paskelbta 38 minutes, ne 05:50 UTC
Vėjas 17 kt iš Vakarų su gūsio iki 28 kt
Temperatūra -2°C
Drėgmė 63%
Slėgis 1005 hPa
Matomumas 10 km arba daugiau
Mažai debesys ne aukštis 2000 ft

METAR: ENNA 100550Z 27017G28KT 9999 FEW020 M02/M08 Q1005 RMK WIND 1800FT 28027KT

Laikas: 08:28 (06:28 UTC)

Prognozė

Prognozė galioja nuo 10 metu 06 UTC su 11 metu 06 UTC
Vėjas 8 kt iš Vakarų
Matomumas 10 km arba daugiau
Mažai debesys ne aukštis 2000 ft
Su prošvaistėmis ne aukštis 4000 ft
Laikinai
nuo 10 metu 06 UTC su 11 metu 06 UTC
Vėjas 15 kt iš Vakarų su gūsio iki 25 kt
Matomumas: 2000 m
ne aukštis 900 ft
sniegas
Laikinai
nuo 10 metu 16 UTC su 10 metu 21 UTC
Vėjas 10 kt iš Šiaurės

TAF: ENNA 1006/1106 28008KT 9999 FEW020 BKN040 TEMPO 1006/1106 27015G25KT 2000 SHSN VV009 TEMPO 1016/1021 35010KT

Orai ataskaitas ir orų prognozės (METAR, TAF).

turimą stotys yra geltonos ir raudonos taškus žemėlapyje.

Perkelti pele per norėdami pamatyti stoties vardą.

Tada spustelėkite, norėdami matyti oro stebėjimo ir prognozės.

Norėdami pakeisti žemėlapį: spustelėkite ant žalios mygtukų su juodo kryžiaus žemyn,; žalią mygtuką su brūkšneliu, jei norite nutolinti; arba žalių rodyklių gretimoms žemėlapius.


METAR-TAF: